MSC Namibia II — A8YT5 — position and weather

sailwx.info

Track history (hours):
 
Tides and Currents Weather Stations Pressure Air Temp Water Temp Dewpoint Dewpoint Depression Visibility Wind Speed Wind Dir Waves Ship Positions

MSC Namibia II

Last reported at 2017-Sep-24 17:30 UTC. Time now 2017-Sep-24 17:47 UTC.
Position N 46°29' E 030°45'.

Length 181 m; draft 8.2 m.

Type: Ship (hazmat cat A). MMSI: 636015129.

Date/timePositionNaut miles runAvg speedWind from/ knotsBaromVisibWave heightAir tempDewpointWater temp
2017-Sep-24 17:30N 46°29' E 030°45'0 0.0
2017-Sep-24 17:00N 46°29' E 030°45'0 0.0
2017-Sep-24 16:30N 46°29' E 030°45'0 0.0
2017-Sep-24 16:00N 46°29' E 030°45'0 0.0
2017-Sep-24 15:30N 46°29' E 030°45'0 0.0
2017-Sep-24 14:57N 46°29' E 030°45'0 0.0
2017-Sep-24 14:12N 46°29' E 030°45'0 0.0
2017-Sep-24 14:00N 46°29' E 030°45'0 0.0
2017-Sep-24 13:30N 46°29' E 030°45'0 0.0
2017-Sep-24 13:00N 46°29' E 030°45'0 0.0
2017-Sep-24 12:30N 46°29' E 030°45'0 0.0
2017-Sep-24 12:00N 46°29' E 030°45'0 0.0
2017-Sep-24 11:24N 46°29' E 030°45'0 0.0
2017-Sep-24 10:48N 46°29' E 030°45'0 0.0
2017-Sep-24 10:27N 46°29' E 030°45'0 0.0
2017-Sep-24 09:45N 46°29' E 030°45'0 0.0
2017-Sep-24 09:14N 46°29' E 030°45'0 0.5
2017-Sep-24 09:00N 46°29' E 030°45'2 3.1
2017-Sep-24 08:30N 46°30' E 030°48'4 9.0
2017-Sep-24 08:00N 46°26' E 030°52'815.9
2017-Sep-24 07:30N 46°19' E 030°54'13014.7
2017-Sep-23 22:38N 44°17' E 029°47'516.9
2017-Sep-23 22:21N 44°13' E 029°43'616.5
2017-Sep-23 22:00N 44°09' E 029°39'816.5
2017-Sep-23 21:30N 44°02' E 029°32'816.6
2017-Sep-23 21:00N 43°55' E 029°26'816.6
2017-Sep-23 20:30N 43°48' E 029°20'816.5
2017-Sep-23 20:00N 43°41' E 029°14'  
2017-Sep-19 19:39N 40°29' E 026°55'213.9
2017-Sep-19 19:30N 40°28' E 026°53'2813.6
2017-Sep-19 17:27N 40°12' E 026°23'1213.9
2017-Sep-19 16:35N 40°02' E 026°15'313.2
2017-Sep-19 16:22N 40°01' E 026°11'9 9.0
2017-Sep-19 15:22N 39°58' E 026°00'411.0
2017-Sep-19 15:00N 39°56' E 025°57'612.6
2017-Sep-19 14:30N 39°51' E 025°51'714.0
2017-Sep-19 14:00N 39°44' E 025°47'7514.3
2017-Sep-19 08:46N 38°38' E 025°04'414.2
2017-Sep-19 08:30N 38°35' E 025°02'1714.2
2017-Sep-19 07:18N 38°19' E 024°52'5814.3
2017-Sep-19 03:16N 37°28' E 024°18'513.9
2017-Sep-19 02:52N 37°24' E 024°13'513.8
2017-Sep-19 02:30N 37°20' E 024°10'713.9
2017-Sep-19 02:00N 37°15' E 024°04'714.2
2017-Sep-19 01:31N 37°10' E 023°58'714.2
2017-Sep-19 01:00N 37°04' E 023°52'714.3
2017-Sep-19 00:30N 36°59' E 023°46'714.3
2017-Sep-19 00:00N 36°53' E 023°41'714.1
2017-Sep-18 23:30N 36°48' E 023°35'714.2
2017-Sep-18 23:00N 36°42' E 023°30'714.2
2017-Sep-18 22:30N 36°36' E 023°25'814.3
2017-Sep-18 21:56N 36°29' E 023°19'9514.0
2017-Sep-18 15:09N 36°37' E 021°21'215.1
2017-Sep-18 15:00N 36°37' E 021°18'714.7
2017-Sep-18 14:30N 36°39' E 021°10'25314.1
2017-Sep-17 20:34N 37°46' E 016°03'413.7
2017-Sep-17 20:16N 37°47' E 015°58'513.8
2017-Sep-17 19:52N 37°49' E 015°51'514.5
2017-Sep-17 19:31N 37°50' E 015°45'714.0
2017-Sep-17 19:00N 37°52' E 015°36'611.3
2017-Sep-17 18:30N 37°57' E 015°32'815.1
2017-Sep-17 18:00N 38°04' E 015°34'714.3
2017-Sep-17 17:30N 38°11' E 015°36'714.3
2017-Sep-17 17:00N 38°17' E 015°41'714.8
2017-Sep-17 16:30N 38°23' E 015°47'713.0
2017-Sep-17 16:00N 38°27' E 015°53'1 2.1
2017-Sep-17 15:30N 38°27' E 015°54'0 0.0
2017-Sep-17 15:00N 38°27' E 015°54'0 0.0
2017-Sep-17 14:30N 38°27' E 015°54'0 0.0
2017-Sep-17 13:57N 38°27' E 015°54'0 0.0
2017-Sep-17 13:18N 38°27' E 015°54'0 0.0
2017-Sep-17 13:00N 38°27' E 015°54'0 0.0
2017-Sep-17 12:24N 38°27' E 015°54'0 0.0
2017-Sep-17 12:00N 38°27' E 015°54'0 0.0
2017-Sep-17 11:30N 38°27' E 015°54'0 0.0
2017-Sep-17 11:00N 38°27' E 015°54'0 0.0
2017-Sep-17 10:30N 38°27' E 015°54'0 0.0
2017-Sep-17 10:00N 38°27' E 015°54'0 0.0
2017-Sep-17 09:30N 38°27' E 015°54'0 0.0
2017-Sep-17 09:00N 38°27' E 015°54'0 0.0
2017-Sep-17 08:30N 38°27' E 015°54'0 0.0
2017-Sep-17 08:00N 38°27' E 015°54'0 0.0
2017-Sep-17 07:30N 38°27' E 015°54'0 0.0
2017-Sep-17 07:00N 38°27' E 015°54'0 0.0
2017-Sep-17 06:30N 38°27' E 015°54'0 0.0
2017-Sep-17 06:00N 38°27' E 015°54'0 0.0
2017-Sep-17 05:30N 38°27' E 015°54'0 0.0
2017-Sep-17 05:00N 38°27' E 015°54'0 0.0
2017-Sep-17 04:30N 38°27' E 015°54'0 0.0
2017-Sep-17 04:00N 38°27' E 015°54'0 0.0
2017-Sep-17 03:30N 38°27' E 015°54'0 0.0
2017-Sep-17 03:00N 38°27' E 015°54'0 0.0
2017-Sep-17 02:30N 38°27' E 015°54'0 0.0
2017-Sep-17 02:00N 38°27' E 015°54'0 0.0
2017-Sep-17 01:30N 38°27' E 015°54'0 0.0
2017-Sep-17 01:00N 38°27' E 015°54'0 0.0
2017-Sep-17 00:30N 38°27' E 015°54'0 0.0
2017-Sep-17 00:00N 38°27' E 015°54'0 0.0
2017-Sep-16 23:30N 38°27' E 015°54'0 0.0
2017-Sep-16 23:00N 38°27' E 015°54'0 0.0
2017-Sep-16 22:30N 38°27' E 015°54'0 0.0
2017-Sep-16 22:00N 38°27' E 015°54'0 0.0
2017-Sep-16 21:30N 38°27' E 015°54'0 0.0
2017-Sep-16 21:00N 38°27' E 015°54'0 0.0
2017-Sep-16 20:30N 38°27' E 015°54'0 0.0
2017-Sep-16 20:00N 38°27' E 015°54'0 0.0
2017-Sep-16 19:30N 38°27' E 015°54'0 0.0
2017-Sep-16 19:00N 38°27' E 015°54'0 0.0
2017-Sep-16 18:30N 38°27' E 015°54'0 0.0
2017-Sep-16 18:00N 38°27' E 015°54'0 0.0
2017-Sep-16 17:30N 38°27' E 015°54'0 0.0
2017-Sep-16 17:00N 38°27' E 015°54'0 0.0
2017-Sep-16 16:30N 38°27' E 015°54'0 0.0
2017-Sep-16 16:00N 38°27' E 015°54'0 0.0
2017-Sep-16 15:30N 38°27' E 015°54'0 0.0
2017-Sep-16 15:00N 38°27' E 015°54'0 0.0
2017-Sep-16 14:30N 38°27' E 015°54'0 0.0
2017-Sep-16 14:00N 38°27' E 015°54'0 0.0
2017-Sep-16 13:30N 38°27' E 015°54'0 0.0
2017-Sep-16 13:00N 38°27' E 015°54'0 0.0
2017-Sep-16 12:30N 38°27' E 015°54'0 0.0
2017-Sep-16 12:00N 38°27' E 015°54'0 0.0
2017-Sep-16 11:30N 38°27' E 015°54'0 0.0
2017-Sep-16 11:00N 38°27' E 015°54'0 0.0
2017-Sep-16 10:30N 38°27' E 015°54'0 0.0
2017-Sep-16 09:48N 38°27' E 015°54'0 0.2
2017-Sep-16 09:30N 38°27' E 015°54'0 0.1
2017-Sep-16 09:00N 38°27' E 015°54'0 0.0
2017-Sep-16 08:30N 38°27' E 015°54'0 0.0
2017-Sep-16 08:00N 38°27' E 015°54'0 0.0
2017-Sep-16 07:30N 38°27' E 015°54'0 0.0
2017-Sep-16 07:00N 38°27' E 015°54'0 0.0
2017-Sep-16 06:30N 38°27' E 015°54'0 0.0
2017-Sep-16 06:00N 38°27' E 015°54'0 0.0
2017-Sep-16 05:30N 38°27' E 015°54'0 0.0
2017-Sep-16 05:00N 38°27' E 015°54'0 0.0
2017-Sep-16 04:30N 38°27' E 015°54'0 0.0
2017-Sep-16 03:54N 38°27' E 015°54'0 0.0
2017-Sep-16 03:30N 38°27' E 015°54'0 0.0
2017-Sep-16 03:00N 38°27' E 015°54'0 0.0
2017-Sep-16 02:30N 38°27' E 015°54'0 0.0
2017-Sep-16 02:00N 38°27' E 015°54'0 0.0
2017-Sep-16 01:30N 38°27' E 015°54'0 0.0
2017-Sep-16 01:00N 38°27' E 015°54'0 0.0
2017-Sep-16 00:30N 38°27' E 015°54'0 0.0
2017-Sep-16 00:00N 38°27' E 015°54'0 0.0
2017-Sep-15 23:30N 38°27' E 015°54'0 0.0
2017-Sep-15 23:00N 38°27' E 015°54'0 0.0
2017-Sep-15 22:30N 38°27' E 015°54'0 0.0
2017-Sep-15 22:00N 38°27' E 015°54'0 0.0
2017-Sep-15 21:27N 38°27' E 015°54'0 0.0
2017-Sep-15 21:00N 38°27' E 015°54'0 0.0
2017-Sep-15 20:30N 38°27' E 015°54'0 0.0
2017-Sep-15 20:00N 38°27' E 015°54'0 0.0
2017-Sep-15 19:21N 38°27' E 015°54'0 0.0
2017-Sep-15 18:54N 38°27' E 015°54'0 0.0
2017-Sep-15 18:30N 38°27' E 015°54'0 0.0
2017-Sep-15 17:51N 38°27' E 015°54'0 0.0
2017-Sep-15 17:30N 38°27' E 015°54'0 0.0
2017-Sep-15 17:00N 38°27' E 015°54'0 0.0
2017-Sep-15 16:30N 38°27' E 015°54'0 0.0
2017-Sep-15 16:00N 38°27' E 015°54'0 0.0
2017-Sep-15 15:30N 38°27' E 015°54'0 0.0
2017-Sep-15 15:00N 38°27' E 015°54'0 0.0
2017-Sep-15 14:24N 38°27' E 015°54'0 0.0
2017-Sep-15 13:51N 38°27' E 015°54'0 0.0
2017-Sep-15 13:30N 38°27' E 015°54'0 0.0
2017-Sep-15 13:00N 38°27' E 015°54'0 0.0
2017-Sep-15 12:21N 38°27' E 015°54'0 0.0
2017-Sep-15 11:51N 38°27' E 015°54'0 0.0
2017-Sep-15 10:51N 38°27' E 015°54'0 0.0
2017-Sep-15 10:27N 38°27' E 015°54'0 0.0
2017-Sep-15 09:57N 38°27' E 015°54'0 0.0
2017-Sep-15 09:30N 38°27' E 015°54'0 0.0
2017-Sep-15 08:57N 38°27' E 015°54'0 0.0
2017-Sep-15 08:30N 38°27' E 015°54'0 0.0
2017-Sep-15 08:00N 38°27' E 015°54'2 3.4
2017-Sep-15 07:30N 38°27' E 015°52'3 5.7
2017-Sep-15 07:00N 38°25' E 015°49'1 1.8
2017-Sep-15 06:30N 38°24' E 015°49'3 6.4
2017-Sep-15 06:00N 38°21' E 015°47'611.1
2017-Sep-15 05:30N 38°17' E 015°43'611.1
2017-Sep-15 05:00N 38°13' E 015°37'612.3
2017-Sep-15 04:30N 38°07' E 015°36'611.1
2017-Sep-15 04:00N 38°02' E 015°36'611.7
2017-Sep-15 03:30N 37°56' E 015°37'612.7
2017-Sep-15 03:01N 37°54' E 015°44'713.4
2017-Sep-15 02:30N 37°52' E 015°53'812.6
2017-Sep-15 01:52N 37°50' E 016°02'2413.0
2017-Sep-15 00:01N 37°43' E 016°32'012.5
2017-Sep-15 00:00N 37°43' E 016°32'6412.8
2017-Sep-14 18:58N 37°25' E 017°50'612.5
2017-Sep-14 18:28N 37°24' E 017°57'612.5
2017-Sep-14 17:58N 37°22' E 018°05'  
Track history (hours):
 
Tides and Currents Weather Stations Pressure Air Temp Water Temp Dewpoint Dewpoint Depression Visibility Wind Speed Wind Dir Waves Ship Positions

MSC Namibia II

Last reported at 2017-Sep-24 17:30 UTC. Time now 2017-Sep-24 17:47 UTC.
Position N 46°29' E 030°45'.

Length 181 m; draft 8.2 m.

Type: Ship (hazmat cat A). MMSI: 636015129.

Date/timePositionNaut miles runAvg speedWind from/ knotsBaromVisibWave heightAir tempDewpointWater temp
2017-Sep-24 17:30N 46°29' E 030°45'0 0.0
2017-Sep-24 17:00N 46°29' E 030°45'0 0.0
2017-Sep-24 16:30N 46°29' E 030°45'0 0.0
2017-Sep-24 16:00N 46°29' E 030°45'0 0.0
2017-Sep-24 15:30N 46°29' E 030°45'0 0.0
2017-Sep-24 14:57N 46°29' E 030°45'0 0.0
2017-Sep-24 14:12N 46°29' E 030°45'0 0.0
2017-Sep-24 14:00N 46°29' E 030°45'0 0.0
2017-Sep-24 13:30N 46°29' E 030°45'0 0.0
2017-Sep-24 13:00N 46°29' E 030°45'0 0.0
2017-Sep-24 12:30N 46°29' E 030°45'0 0.0
2017-Sep-24 12:00N 46°29' E 030°45'0 0.0
2017-Sep-24 11:24N 46°29' E 030°45'0 0.0
2017-Sep-24 10:48N 46°29' E 030°45'0 0.0
2017-Sep-24 10:27N 46°29' E 030°45'0 0.0
2017-Sep-24 09:45N 46°29' E 030°45'0 0.0
2017-Sep-24 09:14N 46°29' E 030°45'0 0.5
2017-Sep-24 09:00N 46°29' E 030°45'2 3.1
2017-Sep-24 08:30N 46°30' E 030°48'4 9.0
2017-Sep-24 08:00N 46°26' E 030°52'815.9
2017-Sep-24 07:30N 46°19' E 030°54'13014.7
2017-Sep-23 22:38N 44°17' E 029°47'516.9
2017-Sep-23 22:21N 44°13' E 029°43'616.5
2017-Sep-23 22:00N 44°09' E 029°39'816.5
2017-Sep-23 21:30N 44°02' E 029°32'816.6
2017-Sep-23 21:00N 43°55' E 029°26'816.6
2017-Sep-23 20:30N 43°48' E 029°20'816.5
2017-Sep-23 20:00N 43°41' E 029°14'  
2017-Sep-19 19:39N 40°29' E 026°55'213.9
2017-Sep-19 19:30N 40°28' E 026°53'2813.6
2017-Sep-19 17:27N 40°12' E 026°23'1213.9
2017-Sep-19 16:35N 40°02' E 026°15'313.2
2017-Sep-19 16:22N 40°01' E 026°11'9 9.0
2017-Sep-19 15:22N 39°58' E 026°00'411.0
2017-Sep-19 15:00N 39°56' E 025°57'612.6
2017-Sep-19 14:30N 39°51' E 025°51'714.0
2017-Sep-19 14:00N 39°44' E 025°47'7514.3
2017-Sep-19 08:46N 38°38' E 025°04'414.2
2017-Sep-19 08:30N 38°35' E 025°02'1714.2
2017-Sep-19 07:18N 38°19' E 024°52'5814.3
2017-Sep-19 03:16N 37°28' E 024°18'513.9
2017-Sep-19 02:52N 37°24' E 024°13'513.8
2017-Sep-19 02:30N 37°20' E 024°10'713.9
2017-Sep-19 02:00N 37°15' E 024°04'714.2
2017-Sep-19 01:31N 37°10' E 023°58'714.2
2017-Sep-19 01:00N 37°04' E 023°52'714.3
2017-Sep-19 00:30N 36°59' E 023°46'714.3
2017-Sep-19 00:00N 36°53' E 023°41'714.1
2017-Sep-18 23:30N 36°48' E 023°35'714.2
2017-Sep-18 23:00N 36°42' E 023°30'714.2
2017-Sep-18 22:30N 36°36' E 023°25'814.3
2017-Sep-18 21:56N 36°29' E 023°19'9514.0
2017-Sep-18 15:09N 36°37' E 021°21'215.1
2017-Sep-18 15:00N 36°37' E 021°18'714.7
2017-Sep-18 14:30N 36°39' E 021°10'25314.1
2017-Sep-17 20:34N 37°46' E 016°03'413.7
2017-Sep-17 20:16N 37°47' E 015°58'513.8
2017-Sep-17 19:52N 37°49' E 015°51'514.5
2017-Sep-17 19:31N 37°50' E 015°45'714.0
2017-Sep-17 19:00N 37°52' E 015°36'611.3
2017-Sep-17 18:30N 37°57' E 015°32'815.1
2017-Sep-17 18:00N 38°04' E 015°34'714.3
2017-Sep-17 17:30N 38°11' E 015°36'714.3
2017-Sep-17 17:00N 38°17' E 015°41'714.8
2017-Sep-17 16:30N 38°23' E 015°47'713.0
2017-Sep-17 16:00N 38°27' E 015°53'1 2.1
2017-Sep-17 15:30N 38°27' E 015°54'0 0.0
2017-Sep-17 15:00N 38°27' E 015°54'0 0.0
2017-Sep-17 14:30N 38°27' E 015°54'0 0.0
2017-Sep-17 13:57N 38°27' E 015°54'0 0.0
2017-Sep-17 13:18N 38°27' E 015°54'0 0.0
2017-Sep-17 13:00N 38°27' E 015°54'0 0.0
2017-Sep-17 12:24N 38°27' E 015°54'0 0.0
2017-Sep-17 12:00N 38°27' E 015°54'0 0.0
2017-Sep-17 11:30N 38°27' E 015°54'0 0.0
2017-Sep-17 11:00N 38°27' E 015°54'0 0.0
2017-Sep-17 10:30N 38°27' E 015°54'0 0.0
2017-Sep-17 10:00N 38°27' E 015°54'0 0.0
2017-Sep-17 09:30N 38°27' E 015°54'0 0.0
2017-Sep-17 09:00N 38°27' E 015°54'0 0.0
2017-Sep-17 08:30N 38°27' E 015°54'0 0.0
2017-Sep-17 08:00N 38°27' E 015°54'0 0.0
2017-Sep-17 07:30N 38°27' E 015°54'0 0.0
2017-Sep-17 07:00N 38°27' E 015°54'0 0.0
2017-Sep-17 06:30N 38°27' E 015°54'0 0.0
2017-Sep-17 06:00N 38°27' E 015°54'0 0.0
2017-Sep-17 05:30N 38°27' E 015°54'0 0.0
2017-Sep-17 05:00N 38°27' E 015°54'0 0.0
2017-Sep-17 04:30N 38°27' E 015°54'0 0.0
2017-Sep-17 04:00N 38°27' E 015°54'0 0.0
2017-Sep-17 03:30N 38°27' E 015°54'0 0.0
2017-Sep-17 03:00N 38°27' E 015°54'0 0.0
2017-Sep-17 02:30N 38°27' E 015°54'0 0.0
2017-Sep-17 02:00N 38°27' E 015°54'0 0.0
2017-Sep-17 01:30N 38°27' E 015°54'0 0.0
2017-Sep-17 01:00N 38°27' E 015°54'0 0.0
2017-Sep-17 00:30N 38°27' E 015°54'0 0.0
2017-Sep-17 00:00N 38°27' E 015°54'0 0.0
2017-Sep-16 23:30N 38°27' E 015°54'0 0.0
2017-Sep-16 23:00N 38°27' E 015°54'0 0.0
2017-Sep-16 22:30N 38°27' E 015°54'0 0.0
2017-Sep-16 22:00N 38°27' E 015°54'0 0.0
2017-Sep-16 21:30N 38°27' E 015°54'0 0.0
2017-Sep-16 21:00N 38°27' E 015°54'0 0.0
2017-Sep-16 20:30N 38°27' E 015°54'0 0.0
2017-Sep-16 20:00N 38°27' E 015°54'0 0.0
2017-Sep-16 19:30N 38°27' E 015°54'0 0.0
2017-Sep-16 19:00N 38°27' E 015°54'0 0.0
2017-Sep-16 18:30N 38°27' E 015°54'0 0.0
2017-Sep-16 18:00N 38°27' E 015°54'0 0.0
2017-Sep-16 17:30N 38°27' E 015°54'0 0.0
2017-Sep-16 17:00N 38°27' E 015°54'0 0.0
2017-Sep-16 16:30N 38°27' E 015°54'0 0.0
2017-Sep-16 16:00N 38°27' E 015°54'0 0.0
2017-Sep-16 15:30N 38°27' E 015°54'0 0.0
2017-Sep-16 15:00N 38°27' E 015°54'0 0.0
2017-Sep-16 14:30N 38°27' E 015°54'0 0.0
2017-Sep-16 14:00N 38°27' E 015°54'0 0.0
2017-Sep-16 13:30N 38°27' E 015°54'0 0.0
2017-Sep-16 13:00N 38°27' E 015°54'0 0.0
2017-Sep-16 12:30N 38°27' E 015°54'0 0.0
2017-Sep-16 12:00N 38°27' E 015°54'0 0.0
2017-Sep-16 11:30N 38°27' E 015°54'0 0.0
2017-Sep-16 11:00N 38°27' E 015°54'0 0.0
2017-Sep-16 10:30N 38°27' E 015°54'0 0.0
2017-Sep-16 09:48N 38°27' E 015°54'0 0.2
2017-Sep-16 09:30N 38°27' E 015°54'0 0.1
2017-Sep-16 09:00N 38°27' E 015°54'0 0.0
2017-Sep-16 08:30N 38°27' E 015°54'0 0.0
2017-Sep-16 08:00N 38°27' E 015°54'0 0.0
2017-Sep-16 07:30N 38°27' E 015°54'0 0.0
2017-Sep-16 07:00N 38°27' E 015°54'0 0.0
2017-Sep-16 06:30N 38°27' E 015°54'0 0.0
2017-Sep-16 06:00N 38°27' E 015°54'0 0.0
2017-Sep-16 05:30N 38°27' E 015°54'0 0.0
2017-Sep-16 05:00N 38°27' E 015°54'0 0.0
2017-Sep-16 04:30N 38°27' E 015°54'0 0.0
2017-Sep-16 03:54N 38°27' E 015°54'0 0.0
2017-Sep-16 03:30N 38°27' E 015°54'0 0.0
2017-Sep-16 03:00N 38°27' E 015°54'0 0.0
2017-Sep-16 02:30N 38°27' E 015°54'0 0.0
2017-Sep-16 02:00N 38°27' E 015°54'0 0.0
2017-Sep-16 01:30N 38°27' E 015°54'0 0.0
2017-Sep-16 01:00N 38°27' E 015°54'0 0.0
2017-Sep-16 00:30N 38°27' E 015°54'0 0.0
2017-Sep-16 00:00N 38°27' E 015°54'0 0.0
2017-Sep-15 23:30N 38°27' E 015°54'0 0.0
2017-Sep-15 23:00N 38°27' E 015°54'0 0.0
2017-Sep-15 22:30N 38°27' E 015°54'0 0.0
2017-Sep-15 22:00N 38°27' E 015°54'0 0.0
2017-Sep-15 21:27N 38°27' E 015°54'0 0.0
2017-Sep-15 21:00N 38°27' E 015°54'0 0.0
2017-Sep-15 20:30N 38°27' E 015°54'0 0.0
2017-Sep-15 20:00N 38°27' E 015°54'0 0.0
2017-Sep-15 19:21N 38°27' E 015°54'0 0.0
2017-Sep-15 18:54N 38°27' E 015°54'0 0.0
2017-Sep-15 18:30N 38°27' E 015°54'0 0.0
2017-Sep-15 17:51N 38°27' E 015°54'0 0.0
2017-Sep-15 17:30N 38°27' E 015°54'0 0.0
2017-Sep-15 17:00N 38°27' E 015°54'0 0.0
2017-Sep-15 16:30N 38°27' E 015°54'0 0.0
2017-Sep-15 16:00N 38°27' E 015°54'0 0.0
2017-Sep-15 15:30N 38°27' E 015°54'0 0.0
2017-Sep-15 15:00N 38°27' E 015°54'0 0.0
2017-Sep-15 14:24N 38°27' E 015°54'0 0.0
2017-Sep-15 13:51N 38°27' E 015°54'0 0.0
2017-Sep-15 13:30N 38°27' E 015°54'0 0.0
2017-Sep-15 13:00N 38°27' E 015°54'0 0.0
2017-Sep-15 12:21N 38°27' E 015°54'0 0.0
2017-Sep-15 11:51N 38°27' E 015°54'0 0.0
2017-Sep-15 10:51N 38°27' E 015°54'0 0.0
2017-Sep-15 10:27N 38°27' E 015°54'0 0.0
2017-Sep-15 09:57N 38°27' E 015°54'0 0.0
2017-Sep-15 09:30N 38°27' E 015°54'0 0.0
2017-Sep-15 08:57N 38°27' E 015°54'0 0.0
2017-Sep-15 08:30N 38°27' E 015°54'0 0.0
2017-Sep-15 08:00N 38°27' E 015°54'2 3.4
2017-Sep-15 07:30N 38°27' E 015°52'3 5.7
2017-Sep-15 07:00N 38°25' E 015°49'1 1.8
2017-Sep-15 06:30N 38°24' E 015°49'3 6.4
2017-Sep-15 06:00N 38°21' E 015°47'611.1
2017-Sep-15 05:30N 38°17' E 015°43'611.1
2017-Sep-15 05:00N 38°13' E 015°37'612.3
2017-Sep-15 04:30N 38°07' E 015°36'611.1
2017-Sep-15 04:00N 38°02' E 015°36'611.7
2017-Sep-15 03:30N 37°56' E 015°37'612.7
2017-Sep-15 03:01N 37°54' E 015°44'713.4
2017-Sep-15 02:30N 37°52' E 015°53'812.6
2017-Sep-15 01:52N 37°50' E 016°02'2413.0
2017-Sep-15 00:01N 37°43' E 016°32'012.5
2017-Sep-15 00:00N 37°43' E 016°32'6412.8
2017-Sep-14 18:58N 37°25' E 017°50'612.5
2017-Sep-14 18:28N 37°24' E 017°57'612.5
2017-Sep-14 17:58N 37°22' E 018°05'  

Dump ship's entire track history